Historique des stations

Station météo de Beddes

Altitude de la station : 224 m







Données météorologiques pour le 16/09/2021
Date
Heure
Températures Humidité Point de rosée Vitesse
du vent
Direction Rafales Windchill Pression Pluviométrie
Cumul
Date
Heure
Températures Humidité Point de rosée Vitesse
du vent
Direction Rafales Windchill Pression Pluviométrie
Cumul
16/09/2021 12:5619.3 °C90 %17.8 °C5 km/hN13 km/h19.4 1019 hPa-
16/09/2021 12:4019.2 °C92 %17.8 °C5 km/hN13 km/h19.4 1019 hPa-
16/09/2021 12:2518.9 °C93 %17.8 °C6 km/hONO13 km/h18.9 1019 hPa-
16/09/2021 12:1018.6 °C94 %17.8 °C3 km/hNO8 km/h18.9 1019 hPa-
16/09/2021 11:5418.3 °C95 %17.8 °C6 km/hN8 km/h18.3 1019 hPa-
16/09/2021 11:3918.3 °C95 %17.8 °C3 km/hN8 km/h18.3 1019 hPa-
16/09/2021 11:2318.0 °C96 %17.2 °C3 km/hN8 km/h17.8 1019 hPa-
16/09/2021 11:0817.9 °C96 %17.2 °C2 km/hN8 km/h17.8 1019 hPa-
16/09/2021 10:5317.7 °C96 %17.2 °C-N8 km/h17.8 1019 hPa-
16/09/2021 10:3717.5 °C96 %16.7 °C----1019 hPa-
16/09/2021 10:2217.3 °C96 %16.7 °C2 km/hN8 km/h17.2 1019 hPa-
16/09/2021 10:0717.2 °C96 %16.7 °C----1019 hPa-
16/09/2021 09:5117.2 °C96 %16.7 °C5 km/hN8 km/h17.2 1019 hPa-
16/09/2021 09:3617.1 °C96 %16.7 °C5 km/hNO8 km/h17.2 1019 hPa-
16/09/2021 09:2116.9 °C96 %16.1 °C3 km/hO8 km/h17.2 1019 hPa-
16/09/2021 09:0516.8 °C96 %16.1 °C3 km/hN8 km/h16.7 1019 hPa-
16/09/2021 08:5016.8 °C96 %16.1 °C5 km/hN8 km/h16.7 1018 hPa-
16/09/2021 08:3516.8 °C96 %16.1 °C2 km/hN8 km/h16.7 1018 hPa-
16/09/2021 08:1916.7 °C96 %16.1 °C5 km/hN8 km/h16.7 1018 hPa-
16/09/2021 08:0416.6 °C96 %16.1 °C3 km/hN8 km/h16.7 1018 hPa-
16/09/2021 07:4816.4 °C96 %15.6 °C-N8 km/h16.7 1018 hPa-
16/09/2021 07:3316.4 °C95 %15.6 °C-N8 km/h16.7 1018 hPa-
16/09/2021 07:1816.5 °C96 %16.1 °C3 km/hN8 km/h16.7 1018 hPa-
16/09/2021 07:0216.6 °C96 %16.1 °C2 km/hN8 km/h16.7 1018 hPa-
16/09/2021 06:5316.7 °C96 %16.1 °C6 km/hN8 km/h16.7 1018 hPa-
16/09/2021 06:3716.7 °C95 %16.1 °C3 km/hN8 km/h16.7 1018 hPa-
16/09/2021 06:3316.7 °C96 %16.1 °C3 km/hN8 km/h16.7 1018 hPa-
16/09/2021 06:1816.4 °C96 %16.1 °C3 km/hN8 km/h16.7 1018 hPa-
16/09/2021 06:0216.1 °C95 %15.6 °C-N8 km/h16.1 1018 hPa-
16/09/2021 05:4716.2 °C95 %15.6 °C-N8 km/h16.1 1018 hPa-
16/09/2021 05:3216.4 °C95 %15.6 °C-N8 km/h16.7 1017 hPa-
16/09/2021 05:1616.3 °C94 %15.6 °C-N8 km/h16.1 1017 hPa-
16/09/2021 05:0116.7 °C95 %16.1 °C-N8 km/h16.7 1017 hPa-
16/09/2021 04:4616.9 °C95 %16.1 °C-N8 km/h17.2 1017 hPa-
16/09/2021 04:3017.0 °C95 %16.1 °C-N8 km/h17.2 1017 hPa-
16/09/2021 04:1517.2 °C95 %16.7 °C5 km/hN8 km/h17.2 1017 hPa-
16/09/2021 03:5917.4 °C95 %16.7 °C5 km/hN8 km/h17.2 1017 hPa-
16/09/2021 03:4417.5 °C95 %16.7 °C5 km/hN8 km/h17.8 1017 hPa-
16/09/2021 03:2917.7 °C95 %16.7 °C-N8 km/h17.8 1017 hPa-
16/09/2021 03:1317.7 °C95 %16.7 °C-N8 km/h17.8 1017 hPa-
16/09/2021 02:5817.6 °C95 %16.7 °C-N8 km/h17.8 1017 hPa-
16/09/2021 02:4317.4 °C95 %16.7 °C5 km/hN6 km/h17.2 1017 hPa-
16/09/2021 02:2717.4 °C95 %16.7 °C---17.2 1017 hPa-
16/09/2021 02:1217.3 °C94 %16.1 °C---17.2 1017 hPa-
16/09/2021 01:5617.4 °C94 %16.7 °C---17.2 1017 hPa-
16/09/2021 01:4117.6 °C94 %16.7 °C---17.8 1017 hPa-
16/09/2021 01:2618.0 °C94 %17.2 °C---17.8 1017 hPa-
16/09/2021 01:0918.0 °C94 %17.2 °C---17.8 1017 hPa-
16/09/2021 00:5417.9 °C94 %17.2 °C---17.8 1017 hPa-
16/09/2021 00:3917.9 °C93 %16.7 °C---17.8 1017 hPa-
16/09/2021 00:2318.2 °C93 %17.2 °C---18.3 1017 hPa-
16/09/2021 00:0818.5 °C93 %17.2 °C---18.3 1017 hPa-


Minima :

Température : 16.1 °C
Humidité : 90 %
Point de rosée : 15.6 °C
Vent moyen : 2 km/h
Windchill : 16.1
Pression atm. : 1017 hPa
Maxima :

Température : 19.3 °C
Humidité : 96 %
Point de rosée : 17.8 °C
Vent moyen : 6 km/h
Windchill : 19.4
Pression atm. : 1019 hPa
Rafales max : 13 km/h
Cumul de pluie sur 24H : 0 mm

Beddes est une commune du département Cher (18).
La station météorologique du réseau de l'association la plus proche de Beddes est celle de Culan



Icône Facebook Association Météo Centre Icône Twitter Association Météo Centre Icône Chaîne Youtube Association Météo Centre Icône contact Association Météo Centre Icône Insta Association Météo Centre